Time;durP1;ratioP1;P1;durP2;ratioP2;P2;SDS_P1;SDS_P2;PMS_P1;PMS_P2;Temp;Humidity;BMP_temperature;BMP_pressure;BME280_temperature;BME280_humidity;BME280_pressure;Samples;Min_cycle;Max_cycle;Signal;HPM_P1;HPM_P2
2022/02/26 00:00:40;;;;;;;38.60;10.73;;;5.70;81.00;;;;;;5020604;28;20179;-85
2022/02/26 00:03:05;;;;;;;40.53;9.75;;;5.60;80.80;;;;;;5000672;28;20487;-86
2022/02/26 00:05:31;;;;;;;23.33;8.27;;;5.80;80.60;;;;;;4999633;28;20182;-86
2022/02/26 00:07:57;;;;;;;14.87;7.97;;;5.90;80.70;;;;;;5015164;28;20421;-85
2022/02/26 00:10:23;;;;;;;21.53;9.43;;;6.00;79.50;;;;;;5014960;28;20461;-85
2022/02/26 00:12:52;;;;;;;17.33;9.67;;;5.90;79.40;;;;;;5014441;28;20756;-85
2022/02/26 00:15:19;;;;;;;22.27;9.65;;;5.80;79.40;;;;;;4997047;28;20413;-85
2022/02/26 00:17:46;;;;;;;23.35;9.23;;;5.50;79.80;;;;;;5015484;28;20236;-85
2022/02/26 00:20:12;;;;;;;31.17;11.05;;;5.50;80.40;;;;;;4997604;28;20178;-85
2022/02/26 00:22:38;;;;;;;30.48;8.02;;;5.60;80.60;;;;;;5016324;28;20281;-85
2022/02/26 00:25:04;;;;;;;22.97;10.00;;;5.60;80.30;;;;;;5004636;28;20222;-85
2022/02/26 00:27:53;;;;;;;19.77;10.27;;;5.40;80.40;;;;;;5000799;28;20182;-85
2022/02/26 00:30:19;;;;;;;23.40;9.52;;;5.40;80.90;;;;;;4998569;28;20209;-85
2022/02/26 00:32:44;;;;;;;22.93;9.77;;;5.50;81.20;;;;;;4981463;28;20650;-85
2022/02/26 00:35:11;;;;;;;26.90;10.60;;;5.50;80.90;;;;;;5015451;28;20170;-85
2022/02/26 00:37:36;;;;;;;26.05;10.50;;;5.50;80.50;;;;;;5015046;28;20545;-85
2022/02/26 00:40:02;;;;;;;33.40;9.97;;;5.50;80.50;;;;;;4997558;28;20210;-85
2022/02/26 00:42:28;;;;;;;25.00;9.45;;;5.30;80.80;;;;;;5016384;28;20441;-85
2022/02/26 00:44:54;;;;;;;16.40;10.40;;;5.20;81.20;;;;;;4999157;28;20178;-85
2022/02/26 00:47:20;;;;;;;31.87;11.53;;;5.00;81.70;;;;;;5014716;28;20202;-85
2022/02/26 00:49:48;;;;;;;49.50;10.73;;;4.90;82.40;;;;;;4997073;28;20550;-85
2022/02/26 00:52:17;;;;;;;20.30;10.02;;;4.90;82.90;;;;;;4996782;28;20182;-85
2022/02/26 00:54:43;;;;;;;22.75;9.45;;;5.00;83.00;;;;;;4996934;28;20198;-86
2022/02/26 00:57:09;;;;;;;30.60;9.47;;;5.30;82.80;;;;;;5000199;28;20189;-86
2022/02/26 00:59:34;;;;;;;18.57;9.90;;;5.50;82.30;;;;;;5015203;28;20779;-85
2022/02/26 01:02:00;;;;;;;24.03;9.00;;;5.50;81.80;;;;;;4996856;28;20806;-85
2022/02/26 01:04:26;;;;;;;26.40;11.30;;;5.60;81.30;;;;;;5014498;28;20837;-85
2022/02/26 01:06:52;;;;;;;27.23;10.57;;;5.60;80.50;;;;;;4996078;28;20422;-85
2022/02/26 01:09:18;;;;;;;26.40;10.38;;;5.60;80.00;;;;;;4996770;28;20673;-86
2022/02/26 01:11:44;;;;;;;32.37;11.17;;;5.50;79.80;;;;;;5014376;28;20178;-85
2022/02/26 01:14:10;;;;;;;22.87;11.30;;;5.50;80.00;;;;;;4996102;28;20433;-85
2022/02/26 01:16:36;;;;;;;26.38;10.57;;;5.40;79.90;;;;;;5014230;28;20532;-86
2022/02/26 01:19:03;;;;;;;28.88;10.70;;;5.10;80.10;;;;;;4997002;28;20182;-86
2022/02/26 01:21:30;;;;;;;26.98;12.15;;;5.10;80.80;;;;;;5014872;28;20249;-85
2022/02/26 01:23:55;;;;;;;22.67;11.13;;;5.00;81.10;;;;;;4981504;28;20646;-86
2022/02/26 01:26:23;;;;;;;23.37;11.83;;;4.80;81.60;;;;;;5000660;28;20194;-85
2022/02/26 01:28:49;;;;;;;28.15;11.30;;;4.70;82.30;;;;;;5000977;28;20405;-86
2022/02/26 01:31:15;;;;;;;43.83;12.73;;;4.70;82.80;;;;;;4981603;28;20215;-85
2022/02/26 01:33:41;;;;;;;41.22;12.13;;;5.00;82.40;;;;;;4983440;28;20203;-86
2022/02/26 01:36:07;;;;;;;25.43;12.50;;;5.10;82.00;;;;;;4996879;28;20178;-85
2022/02/26 01:38:33;;;;;;;31.30;12.95;;;5.10;81.70;;;;;;4981390;28;20902;-86
2022/02/26 01:41:00;;;;;;;37.90;13.13;;;5.10;81.70;;;;;;4983698;28;20658;-86
2022/02/26 01:43:26;;;;;;;27.17;13.05;;;5.20;81.40;;;;;;4980839;28;20215;-85
2022/02/26 01:45:53;;;;;;;26.97;13.40;;;5.20;81.10;;;;;;4981337;28;20241;-85
2022/02/26 01:48:19;;;;;;;30.58;14.02;;;5.10;80.90;;;;;;4979622;28;20430;-86
2022/02/26 01:50:45;;;;;;;26.02;13.40;;;5.00;81.00;;;;;;4976988;28;20941;-86
2022/02/26 01:53:11;;;;;;;23.42;13.30;;;5.00;81.10;;;;;;4976684;28;20616;-85
2022/02/26 01:55:37;;;;;;;23.10;13.10;;;5.10;81.10;;;;;;4976593;28;20187;-85
2022/02/26 01:58:04;;;;;;;55.72;14.18;;;5.10;80.60;;;;;;4977003;28;20410;-86
2022/02/26 02:00:30;;;;;;;28.73;15.07;;;5.00;80.40;;;;;;4977767;28;20198;-85
2022/02/26 02:02:59;;;;;;;50.70;16.70;;;4.90;80.60;;;;;;4980213;28;20234;-85
2022/02/26 02:05:29;;;;;;;30.58;13.90;;;4.90;80.80;;;;;;4987226;28;20183;-85
2022/02/26 02:07:55;;;;;;;22.90;13.95;;;4.60;80.90;;;;;;5006870;28;20190;-85
2022/02/26 02:10:21;;;;;;;36.15;14.40;;;4.40;81.60;;;;;;4989007;28;20274;-85
2022/02/26 02:12:47;;;;;;;35.78;18.60;;;4.40;82.30;;;;;;4994537;28;20212;-85
2022/02/26 02:15:13;;;;;;;29.80;19.63;;;4.60;82.40;;;;;;4976036;28;20175;-85
2022/02/26 02:17:43;;;;;;;35.30;17.60;;;4.50;82.40;;;;;;5013577;28;20806;-85
2022/02/26 02:20:10;;;;;;;35.72;19.23;;;4.20;82.60;;;;;;5034595;28;20198;-85
2022/02/26 02:22:36;;;;;;;43.70;20.58;;;4.20;83.20;;;;;;5000075;28;20186;-85
2022/02/26 02:25:04;;;;;;;42.23;19.13;;;4.20;83.50;;;;;;5006511;28;20825;-85
2022/02/26 02:27:29;;;;;;;47.10;21.63;;;4.40;83.60;;;;;;4979559;28;20418;-85
2022/02/26 02:29:55;;;;;;;41.13;21.40;;;4.40;83.50;;;;;;4979177;28;20207;-85
2022/02/26 02:32:21;;;;;;;46.97;23.17;;;4.50;83.40;;;;;;4979663;28;20171;-85
2022/02/26 02:34:47;;;;;;;43.83;23.60;;;4.60;82.70;;;;;;4978512;28;20605;-85
2022/02/26 02:37:13;;;;;;;50.83;25.97;;;4.60;82.20;;;;;;4979617;28;20707;-85
2022/02/26 02:39:42;;;;;;;51.67;27.95;;;4.50;82.30;;;;;;4980173;28;20179;-85
2022/02/26 02:42:08;;;;;;;41.90;25.13;;;4.60;82.40;;;;;;4980073;28;20183;-84
2022/02/26 02:44:33;;;;;;;48.50;26.98;;;4.60;82.40;;;;;;4979080;28;20407;-84
2022/02/26 02:46:59;;;;;;;52.80;24.30;;;4.60;82.50;;;;;;4990117;28;20554;-85
2022/02/26 02:49:25;;;;;;;44.45;23.10;;;4.60;82.40;;;;;;5016588;28;20186;-85
2022/02/26 02:51:51;;;;;;;47.03;23.65;;;4.70;82.20;;;;;;5001012;28;20186;-85
2022/02/26 02:54:17;;;;;;;43.13;21.33;;;4.80;81.70;;;;;;5001872;28;20198;-85
2022/02/26 02:56:43;;;;;;;42.50;22.27;;;4.80;81.40;;;;;;5003565;28;20409;-85
2022/02/26 02:59:09;;;;;;;48.53;23.60;;;4.60;81.20;;;;;;5002720;28;20175;-85
2022/02/26 03:01:34;;;;;;;46.92;20.55;;;4.70;81.40;;;;;;5002796;28;20414;-85
2022/02/26 03:04:00;;;;;;;45.03;21.53;;;4.50;81.70;;;;;;5000761;28;20253;-85
2022/02/26 03:06:27;;;;;;;47.73;22.97;;;4.20;82.40;;;;;;4998620;28;20643;-85
2022/02/26 03:08:53;;;;;;;58.97;23.10;;;4.20;82.90;;;;;;5016214;28;20179;-85
2022/02/26 03:11:20;;;;;;;42.90;22.77;;;4.20;83.30;;;;;;4998076;28;20232;-85
2022/02/26 03:13:46;;;;;;;40.53;22.73;;;4.20;83.60;;;;;;4997785;28;20568;-86
2022/02/26 03:16:17;;;;;;;37.67;22.60;;;4.10;83.90;;;;;;4998665;28;20209;-85
2022/02/26 03:18:43;;;;;;;50.45;21.20;;;4.20;84.10;;;;;;4998225;28;20630;-85
2022/02/26 03:21:09;;;;;;;56.53;23.13;;;4.00;84.20;;;;;;4998237;28;20179;-85
2022/02/26 03:23:35;;;;;;;49.30;22.60;;;4.00;84.50;;;;;;5021665;28;20202;-85
2022/02/26 03:26:01;;;;;;;53.97;21.23;;;4.00;84.70;;;;;;4990523;28;20554;-85
2022/02/26 03:28:26;;;;;;;44.63;21.37;;;4.10;85.00;;;;;;4978648;28;20245;-84
2022/02/26 03:30:52;;;;;;;42.83;22.80;;;4.30;84.80;;;;;;4978125;28;20203;-84
2022/02/26 03:33:18;;;;;;;54.27;20.87;;;4.40;84.60;;;;;;4997736;28;20205;-85
2022/02/26 03:35:43;;;;;;;42.03;21.60;;;4.50;84.30;;;;;;4978635;28;20573;-85
2022/02/26 03:38:10;;;;;;;40.47;18.73;;;4.50;84.00;;;;;;4996283;28;20179;-85
2022/02/26 03:40:36;;;;;;;48.80;18.75;;;4.60;83.70;;;;;;4978745;28;20194;-85
2022/02/26 03:43:03;;;;;;;39.87;20.17;;;4.80;83.10;;;;;;4977969;28;20222;-85
2022/02/26 03:45:30;;;;;;;46.05;20.10;;;4.80;82.50;;;;;;4978654;28;20446;-85
2022/02/26 03:47:55;;;;;;;31.03;18.97;;;4.70;82.30;;;;;;4996932;28;20178;-85
2022/02/26 03:50:21;;;;;;;42.50;19.27;;;4.60;82.20;;;;;;5016055;28;20467;-85
2022/02/26 03:52:47;;;;;;;34.70;17.13;;;4.60;82.40;;;;;;5015331;28;20258;-85
2022/02/26 03:55:13;;;;;;;40.23;20.70;;;4.70;82.30;;;;;;4998041;28;20933;-85
2022/02/26 03:57:39;;;;;;;38.47;19.20;;;4.80;81.70;;;;;;4997983;28;20179;-85
2022/02/26 04:00:07;;;;;;;34.65;16.67;;;4.80;81.30;;;;;;4997356;28;20277;-85
2022/02/26 04:02:34;;;;;;;40.65;19.77;;;4.70;81.30;;;;;;4996896;28;20208;-84
2022/02/26 04:05:00;;;;;;;35.60;18.30;;;4.50;81.80;;;;;;4996951;28;20174;-85
2022/02/26 04:07:26;;;;;;;38.72;19.00;;;4.20;82.40;;;;;;5014896;28;20666;-85
2022/02/26 04:09:52;;;;;;;35.30;19.87;;;4.30;83.00;;;;;;4997370;28;20292;-85
2022/02/26 04:12:18;;;;;;;40.43;17.70;;;4.40;82.90;;;;;;4996911;28;20410;-85
2022/02/26 04:14:44;;;;;;;46.70;18.38;;;4.60;82.70;;;;;;4996186;28;20987;-85
2022/02/26 04:17:10;;;;;;;34.93;19.07;;;4.60;82.60;;;;;;4996848;28;20182;-84
2022/02/26 04:19:35;;;;;;;39.05;18.20;;;4.50;82.50;;;;;;4997048;28;20529;-85
2022/02/26 04:22:02;;;;;;;33.90;18.70;;;4.50;82.60;;;;;;4997978;28;20186;-84
2022/02/26 04:24:28;;;;;;;34.65;18.73;;;4.50;82.60;;;;;;5010630;28;20223;-85
2022/02/26 04:26:53;;;;;;;35.87;18.03;;;4.50;82.60;;;;;;4980673;28;20695;-84
2022/02/26 04:29:19;;;;;;;40.37;17.83;;;4.50;82.60;;;;;;4979949;28;20418;-85
2022/02/26 04:31:45;;;;;;;48.53;20.67;;;4.50;82.50;;;;;;4979703;28;20278;-85
2022/02/26 04:34:11;;;;;;;36.93;18.43;;;4.50;82.40;;;;;;4977728;28;20802;-85
2022/02/26 04:36:36;;;;;;;34.60;18.50;;;4.50;82.30;;;;;;4977516;28;21073;-85
2022/02/26 04:39:04;;;;;;;40.03;18.73;;;4.50;82.10;;;;;;4963625;28;20214;-85
2022/02/26 04:41:30;;;;;;;39.47;18.30;;;4.60;81.80;;;;;;4977270;28;20276;-85
2022/02/26 04:43:56;;;;;;;33.60;17.13;;;4.60;81.50;;;;;;4977156;28;20813;-84
2022/02/26 04:46:22;;;;;;;34.30;16.80;;;4.50;81.60;;;;;;4995299;28;20418;-85
2022/02/26 04:48:47;;;;;;;43.28;17.30;;;4.40;81.60;;;;;;4978600;28;20425;-84
2022/02/26 04:51:13;;;;;;;31.93;16.60;;;4.30;81.90;;;;;;4981249;28;20603;-84
2022/02/26 04:53:39;;;;;;;34.15;16.73;;;4.40;82.10;;;;;;4997307;28;20477;-85
2022/02/26 04:56:07;;;;;;;39.33;18.08;;;4.40;82.00;;;;;;5011947;28;20342;-84
2022/02/26 04:58:34;;;;;;;41.58;18.52;;;4.40;82.00;;;;;;5024405;28;20166;-85
2022/02/26 05:01:01;;;;;;;32.45;18.27;;;4.40;82.00;;;;;;5016005;28;20181;-85
2022/02/26 05:03:27;;;;;;;30.27;17.52;;;4.40;81.90;;;;;;5016100;28;20202;-84
2022/02/26 05:05:53;;;;;;;38.28;18.42;;;4.40;81.60;;;;;;5034307;28;20189;-84
2022/02/26 05:08:19;;;;;;;27.60;17.25;;;4.50;81.20;;;;;;5016520;28;20189;-85
2022/02/26 05:10:45;;;;;;;31.80;18.43;;;4.50;80.50;;;;;;5016463;28;20626;-85
2022/02/26 05:13:11;;;;;;;25.43;16.43;;;4.40;80.10;;;;;;5016185;28;20441;-85
2022/02/26 05:15:36;;;;;;;33.83;18.67;;;4.30;80.30;;;;;;5016349;28;20421;-85
2022/02/26 05:18:03;;;;;;;40.17;17.90;;;4.00;79.80;;;;;;5016644;28;20224;-85
2022/02/26 05:20:31;;;;;;;35.85;17.25;;;4.00;80.00;;;;;;5016531;28;20284;-85
2022/02/26 05:22:57;;;;;;;29.20;16.70;;;3.90;80.30;;;;;;5000368;28;20217;-85
2022/02/26 05:25:23;;;;;;;38.65;18.67;;;3.80;80.60;;;;;;4986018;28;20179;-85
2022/02/26 05:27:49;;;;;;;39.80;19.00;;;3.70;81.00;;;;;;4977998;28;20659;-85
2022/02/26 05:30:15;;;;;;;28.27;17.70;;;3.80;81.30;;;;;;4977497;28;20557;-85
2022/02/26 05:32:42;;;;;;;42.65;19.95;;;3.80;81.40;;;;;;4979937;28;20499;-85
2022/02/26 05:35:09;;;;;;;35.28;17.50;;;3.80;81.50;;;;;;4977837;28;20189;-85
2022/02/26 05:37:35;;;;;;;32.90;18.38;;;3.70;81.70;;;;;;4977329;28;20183;-84
2022/02/26 05:40:01;;;;;;;33.40;18.53;;;3.90;81.80;;;;;;4995679;28;20213;-85
2022/02/26 05:42:26;;;;;;;38.80;18.30;;;3.90;81.40;;;;;;4980079;28;20191;-85
2022/02/26 05:44:52;;;;;;;34.50;20.00;;;3.90;81.30;;;;;;4983548;28;20221;-85
2022/02/26 05:47:18;;;;;;;32.47;16.83;;;4.00;81.20;;;;;;4978745;28;20183;-85
2022/02/26 05:49:44;;;;;;;39.43;19.13;;;4.10;80.90;;;;;;4977865;28;20894;-85
2022/02/26 05:52:09;;;;;;;31.30;20.23;;;4.20;80.70;;;;;;4979197;28;20546;-85
2022/02/26 05:54:38;;;;;;;38.63;19.63;;;4.10;80.60;;;;;;5000520;28;20226;-85
2022/02/26 05:57:04;;;;;;;32.15;17.63;;;4.20;80.50;;;;;;4982281;28;20414;-85
2022/02/26 05:59:30;;;;;;;37.75;18.85;;;4.20;80.20;;;;;;4999750;28;20180;-85
2022/02/26 06:01:55;;;;;;;33.60;19.10;;;4.00;80.10;;;;;;4980874;28;20542;-85
2022/02/26 06:04:33;;;;;;;38.73;17.93;;;3.80;80.60;;;;;;4997683;28;20191;-85
2022/02/26 06:06:59;;;;;;;31.73;18.05;;;3.90;81.00;;;;;;4980198;28;20175;-85
2022/02/26 06:09:25;;;;;;;38.13;19.00;;;4.00;80.80;;;;;;4997643;28;20198;-85
2022/02/26 06:11:50;;;;;;;27.77;18.17;;;3.90;80.80;;;;;;4980310;28;20190;-85
2022/02/26 06:14:16;;;;;;;31.80;18.20;;;3.90;80.80;;;;;;4979615;28;20262;-85
2022/02/26 06:16:42;;;;;;;29.13;18.70;;;4.00;81.50;;;;;;4982948;28;20418;-85
2022/02/26 06:19:08;;;;;;;28.53;19.13;;;3.90;80.80;;;;;;4999449;28;20193;-85
2022/02/26 06:21:33;;;;;;;39.10;18.93;;;4.00;80.80;;;;;;4999490;28;20174;-86
2022/02/26 06:23:59;;;;;;;35.10;19.30;;;4.10;80.60;;;;;;5003979;28;20447;-85
2022/02/26 06:26:25;;;;;;;44.57;19.30;;;4.10;80.40;;;;;;5003303;28;20265;-86
2022/02/26 06:28:51;;;;;;;34.00;18.20;;;4.00;80.10;;;;;;5017359;28;20210;-85
2022/02/26 06:31:16;;;;;;;40.60;17.90;;;3.80;80.40;;;;;;4998877;28;20493;-85
2022/02/26 06:33:42;;;;;;;34.17;20.40;;;3.70;81.00;;;;;;4998067;28;20199;-85
2022/02/26 06:36:08;;;;;;;40.87;19.47;;;3.80;81.40;;;;;;4999428;28;20990;-85
2022/02/26 06:38:33;;;;;;;41.33;20.30;;;3.90;81.40;;;;;;5000918;28;20189;-85
2022/02/26 06:40:59;;;;;;;35.60;20.30;;;3.80;81.30;;;;;;4999128;28;20179;-86
2022/02/26 06:43:25;;;;;;;34.03;20.30;;;3.70;81.50;;;;;;4998366;28;20218;-86
2022/02/26 06:46:08;;;;;;;46.20;20.93;;;4.00;81.40;;;;;;5003853;28;20183;-85
2022/02/26 06:48:34;;;;;;;44.92;22.23;;;4.10;80.50;;;;;;4998577;28;20410;-86
2022/02/26 06:51:01;;;;;;;41.78;20.65;;;4.10;80.20;;;;;;4998912;28;20272;-85
2022/02/26 06:53:26;;;;;;;39.95;19.33;;;4.00;80.00;;;;;;4993838;28;20198;-84
2022/02/26 06:55:52;;;;;;;44.50;21.00;;;4.00;80.30;;;;;;4999482;28;20175;-85
2022/02/26 06:58:18;;;;;;;45.17;23.40;;;4.00;80.60;;;;;;5019335;28;20200;-85
2022/02/26 07:00:44;;;;;;;41.40;21.63;;;3.90;80.90;;;;;;5017027;28;20187;-84
2022/02/26 07:03:09;;;;;;;43.30;21.50;;;4.00;81.10;;;;;;5000311;28;20449;-84
2022/02/26 07:05:35;;;;;;;58.73;21.77;;;4.10;81.30;;;;;;5002768;28;20205;-84
2022/02/26 07:08:01;;;;;;;41.77;21.87;;;4.00;81.30;;;;;;5001103;28;20183;-84
2022/02/26 07:10:26;;;;;;;48.73;22.67;;;4.00;81.50;;;;;;5000193;28;20202;-84
2022/02/26 07:12:52;;;;;;;32.97;20.60;;;4.30;81.30;;;;;;5018186;28;20211;-83
2022/02/26 07:15:18;;;;;;;47.40;22.80;;;4.40;80.60;;;;;;4999359;28;20636;-84
2022/02/26 07:18:01;;;;;;;51.47;22.15;;;4.40;80.10;;;;;;5009302;28;20421;-85
2022/02/26 07:20:27;;;;;;;40.58;19.80;;;4.50;79.70;;;;;;5018296;28;20189;-84
2022/02/26 07:22:53;;;;;;;33.80;18.92;;;4.50;79.30;;;;;;4999549;28;20573;-84
2022/02/26 07:25:19;;;;;;;39.50;21.50;;;4.50;79.10;;;;;;5001689;28;20186;-85
2022/02/26 07:27:44;;;;;;;39.00;19.30;;;4.60;78.60;;;;;;5002479;28;20874;-84
2022/02/26 07:30:11;;;;;;;26.10;18.23;;;4.50;78.50;;;;;;5001215;28;20457;-85
2022/02/26 07:32:37;;;;;;;25.50;17.17;;;4.50;78.50;;;;;;4999360;28;20589;-85
2022/02/26 07:35:04;;;;;;;30.40;16.77;;;4.50;78.70;;;;;;4999743;28;20187;-85
2022/02/26 07:37:30;;;;;;;33.30;17.23;;;4.50;78.60;;;;;;5019281;28;20182;-85
2022/02/26 07:39:57;;;;;;;27.02;16.60;;;4.20;78.60;;;;;;5025408;28;20182;-86
2022/02/26 07:42:23;;;;;;;30.48;16.00;;;4.30;79.20;;;;;;5009841;28;20182;-85
2022/02/26 07:45:05;;;;;;;34.20;16.23;;;4.50;79.30;;;;;;5019213;28;20285;-85
2022/02/26 07:47:33;;;;;;;33.10;15.95;;;4.60;79.30;;;;;;4999665;28;20257;-85
2022/02/26 07:49:59;;;;;;;27.42;15.13;;;4.60;79.30;;;;;;4998360;28;20713;-87
2022/02/26 07:52:27;;;;;;;37.13;16.90;;;4.70;79.50;;;;;;5000105;28;20190;-85
2022/02/26 07:55:01;;;;;;;23.75;15.30;;;4.90;79.50;;;;;;5001605;28;20515;-85
2022/02/26 07:57:27;;;;;;;32.80;15.57;;;5.00;79.10;;;;;;4998836;28;20189;-86
2022/02/26 07:59:53;;;;;;;29.67;16.85;;;5.00;78.90;;;;;;4998387;28;20175;-86
2022/02/26 08:02:19;;;;;;;25.60;15.87;;;5.00;78.90;;;;;;4998757;28;20186;-86
2022/02/26 08:04:44;;;;;;;30.53;15.70;;;5.10;79.00;;;;;;5000057;28;20205;-85
2022/02/26 08:07:12;;;;;;;27.23;15.30;;;5.20;79.00;;;;;;5014412;28;20185;-86
2022/02/26 08:09:37;;;;;;;24.25;14.00;;;5.30;79.00;;;;;;4999568;28;20421;-86
2022/02/26 08:12:03;;;;;;;30.90;16.73;;;5.30;78.70;;;;;;4998703;28;20178;-86
2022/02/26 08:14:29;;;;;;;24.30;14.73;;;5.40;78.50;;;;;;4997656;28;20563;-86
2022/02/26 08:16:55;;;;;;;29.27;15.17;;;5.40;78.10;;;;;;4996764;28;20178;-86
2022/02/26 08:19:21;;;;;;;24.00;14.70;;;5.30;77.80;;;;;;4997994;28;20418;-86
2022/02/26 08:21:46;;;;;;;24.23;15.10;;;5.30;78.10;;;;;;4997375;28;20195;-85
2022/02/26 08:24:14;;;;;;;26.43;16.53;;;5.20;78.10;;;;;;4998141;28;20449;-86
2022/02/26 08:26:40;;;;;;;32.80;16.08;;;5.30;78.70;;;;;;5030017;28;20428;-86
2022/02/26 08:29:06;;;;;;;28.23;15.23;;;5.30;78.80;;;;;;4997763;28;20186;-85
2022/02/26 08:31:32;;;;;;;33.43;15.87;;;5.40;78.80;;;;;;4997771;28;20725;-85
2022/02/26 08:33:57;;;;;;;29.50;16.67;;;5.40;78.80;;;;;;4997507;28;20662;-85
2022/02/26 08:36:23;;;;;;;31.60;16.47;;;5.50;79.00;;;;;;4998364;28;20186;-85
2022/02/26 08:38:49;;;;;;;39.70;17.30;;;5.60;78.80;;;;;;4998443;28;20202;-86
2022/02/26 08:41:16;;;;;;;25.60;16.87;;;5.70;78.90;;;;;;5016772;28;20193;-85
2022/02/26 08:43:41;;;;;;;25.13;15.65;;;5.70;78.90;;;;;;5014105;28;20210;-86
2022/02/26 08:46:07;;;;;;;27.80;18.23;;;5.90;78.70;;;;;;4997961;28;20182;-85
2022/02/26 08:48:33;;;;;;;27.17;15.47;;;5.80;78.50;;;;;;4999010;28;20182;-85
2022/02/26 08:50:59;;;;;;;42.85;16.42;;;5.80;78.70;;;;;;5019575;28;20457;-87
2022/02/26 08:53:25;;;;;;;33.47;15.90;;;5.90;78.80;;;;;;5003395;28;20646;-85
2022/02/26 08:55:50;;;;;;;26.67;14.93;;;6.00;78.50;;;;;;5001357;28;20178;-85
2022/02/26 08:58:16;;;;;;;30.60;15.87;;;6.00;79.10;;;;;;4997493;28;20681;-84
2022/02/26 09:00:46;;;;;;;27.03;15.00;;;6.10;78.60;;;;;;4997721;28;20417;-85
2022/02/26 09:03:11;;;;;;;23.48;13.98;;;6.20;78.60;;;;;;5004376;28;20293;-87
2022/02/26 09:05:37;;;;;;;21.07;13.77;;;6.20;78.90;;;;;;5013987;28;20282;-87
2022/02/26 09:08:04;;;;;;;21.42;14.60;;;6.20;79.00;;;;;;5001672;28;20424;-88
2022/02/26 09:10:30;;;;;;;27.17;13.50;;;6.10;79.40;;;;;;5016995;28;20288;-87
2022/02/26 09:12:56;;;;;;;24.08;14.75;;;6.00;80.00;;;;;;5016268;28;20195;-87
2022/02/26 09:15:21;;;;;;;35.77;13.43;;;5.90;80.70;;;;;;4998209;28;20193;-87
2022/02/26 09:17:47;;;;;;;31.70;18.60;;;5.80;81.20;;;;;;5016157;28;20418;-88
2022/02/26 09:20:13;;;;;;;28.37;13.00;;;6.10;81.70;;;;;;5016381;28;20175;-87
2022/02/26 09:22:40;;;;;;;34.72;13.20;;;6.30;81.80;;;;;;5005535;28;20174;-86
2022/02/26 09:25:07;;;;;;;21.67;10.27;;;6.10;81.80;;;;;;5003925;28;20163;-86
2022/02/26 09:27:32;;;;;;;30.85;11.43;;;6.40;82.40;;;;;;4983412;28;20190;-88
2022/02/26 09:29:58;;;;;;;18.60;11.03;;;6.40;82.00;;;;;;4982965;28;20710;-87
2022/02/26 09:32:27;;;;;;;28.13;9.50;;;6.50;81.50;;;;;;4983894;28;20179;-87
2022/02/26 09:34:53;;;;;;;22.83;9.95;;;6.40;80.60;;;;;;5000714;28;20418;-87
2022/02/26 09:37:19;;;;;;;22.73;10.20;;;6.40;80.40;;;;;;4983044;28;20186;-87
2022/02/26 09:39:45;;;;;;;25.27;9.43;;;6.30;80.50;;;;;;4982643;28;20270;-87
2022/02/26 09:42:11;;;;;;;21.50;8.27;;;6.40;80.10;;;;;;4982127;28;20473;-88
2022/02/26 09:44:37;;;;;;;25.70;7.82;;;6.40;80.00;;;;;;4982565;28;20438;-87
2022/02/26 09:47:03;;;;;;;19.87;7.03;;;6.50;80.10;;;;;;4994453;28;20196;-87
2022/02/26 09:49:29;;;;;;;15.10;7.35;;;6.40;80.00;;;;;;5002802;28;20180;-85
2022/02/26 09:51:56;;;;;;;23.30;8.40;;;6.50;80.20;;;;;;5007102;28;20179;-87
2022/02/26 09:54:21;;;;;;;18.95;8.23;;;6.60;80.20;;;;;;5008093;28;20832;-87
2022/02/26 09:56:47;;;;;;;27.83;8.57;;;6.80;79.90;;;;;;5003995;28;20183;-87
2022/02/26 09:59:13;;;;;;;19.87;8.70;;;6.80;79.10;;;;;;5002536;28;20368;-87
2022/02/26 10:02:00;;;;;;;17.98;7.93;;;6.70;79.00;;;;;;5002327;28;20179;-87
2022/02/26 10:04:28;;;;;;;16.27;8.07;;;6.70;78.90;;;;;;5018759;28;20199;-86
2022/02/26 10:07:16;;;;;;;16.80;8.07;;;6.60;78.90;;;;;;5001343;28;20177;-85
2022/02/26 10:09:44;;;;;;;25.90;8.98;;;6.80;79.30;;;;;;5001442;28;20178;-87
2022/02/26 10:12:26;;;;;;;32.38;9.13;;;6.90;79.50;;;;;;5001413;28;20174;-87
2022/02/26 10:14:55;;;;;;;26.80;9.20;;;6.90;79.00;;;;;;5019381;28;20175;-87
2022/02/26 10:17:31;;;;;;;17.88;8.02;;;7.00;78.50;;;;;;5021040;28;20179;-87
2022/02/26 10:20:16;;;;;;;17.45;8.15;;;7.00;78.10;;;;;;5005509;28;20542;-86
2022/02/26 10:22:49;;;;;;;15.73;6.85;;;6.90;77.80;;;;;;5007930;28;20186;-86
2022/02/26 10:25:21;;;;;;;33.00;9.20;;;7.00;77.90;;;;;;5012772;28;20183;-86
2022/02/26 10:27:48;;;;;;;21.45;7.82;;;7.00;77.70;;;;;;5009456;28;20266;-86
2022/02/26 10:30:22;;;;;;;20.35;7.63;;;7.10;77.70;;;;;;5008251;28;20256;-86
2022/02/26 10:33:08;;;;;;;21.50;8.80;;;7.20;77.70;;;;;;5009182;28;20198;-86
2022/02/26 10:35:43;;;;;;;18.50;7.20;;;7.30;77.50;;;;;;4999745;28;20204;-87
2022/02/26 10:38:30;;;;;;;32.47;9.15;;;7.40;77.20;;;;;;5000713;28;20178;-86
2022/02/26 10:41:00;;;;;;;32.13;10.75;;;7.30;76.70;;;;;;5016423;28;20159;-87
2022/02/26 10:43:46;;;;;;;17.95;8.98;;;7.30;76.70;;;;;;5017455;28;20225;-86
2022/02/26 10:46:21;;;;;;;27.00;8.27;;;7.50;76.50;;;;;;5003468;28;20183;-87
2022/02/26 10:48:49;;;;;;;16.58;6.88;;;7.60;76.30;;;;;;5001310;28;20650;-87
2022/02/26 10:51:40;;;;;;;14.20;7.88;;;7.40;76.10;;;;;;5017612;28;20225;-87
2022/02/26 10:54:09;;;;;;;35.55;9.75;;;7.40;75.80;;;;;;4998693;28;20202;-86
2022/02/26 10:56:39;;;;;;;18.58;7.22;;;7.40;75.20;;;;;;5000124;28;20179;-87
2022/02/26 10:59:08;;;;;;;27.08;8.02;;;7.50;74.60;;;;;;5017370;28;20258;-88
2022/02/26 11:01:35;;;;;;;22.40;7.22;;;7.60;74.40;;;;;;4999951;28;20269;-87
2022/02/26 11:04:04;;;;;;;20.20;7.55;;;7.60;74.10;;;;;;5000652;28;20206;-87
2022/02/26 11:06:35;;;;;;;15.95;7.07;;;7.90;73.90;;;;;;5016626;28;20254;-87
2022/02/26 11:09:02;;;;;;;22.60;7.10;;;7.80;73.10;;;;;;4998817;28;20178;-87
2022/02/26 11:11:28;;;;;;;23.27;6.72;;;7.90;72.70;;;;;;4999844;28;20214;-87
2022/02/26 11:13:55;;;;;;;15.60;7.10;;;8.00;72.60;;;;;;5000725;28;20245;-87
2022/02/26 11:16:22;;;;;;;19.42;6.90;;;8.10;72.40;;;;;;5018071;28;20417;-87
2022/02/26 11:18:53;;;;;;;30.17;7.68;;;8.20;72.00;;;;;;5000643;28;20241;-87
2022/02/26 11:21:20;;;;;;;12.50;6.25;;;8.10;71.70;;;;;;5000826;28;20166;-88
2022/02/26 11:23:51;;;;;;;17.27;7.03;;;8.00;71.30;;;;;;5001018;28;20225;-87
2022/02/26 11:26:18;;;;;;;17.35;6.95;;;8.20;71.30;;;;;;4996388;28;20797;-88
2022/02/26 11:28:55;;;;;;;16.45;5.78;;;8.30;70.70;;;;;;4998954;28;20194;-85
2022/02/26 11:31:24;;;;;;;25.13;5.95;;;8.20;69.30;;;;;;4964973;28;20580;-87
2022/02/26 11:33:50;;;;;;;16.67;5.60;;;8.50;69.80;;;;;;4979815;28;20199;-87
2022/02/26 11:36:16;;;;;;;19.05;6.68;;;8.30;69.00;;;;;;4982040;28;20172;-85
2022/02/26 11:38:45;;;;;;;18.43;6.00;;;8.30;69.40;;;;;;4981095;28;20175;-83
2022/02/26 11:41:19;;;;;;;23.52;6.20;;;8.20;69.20;;;;;;4980419;28;20179;-87
2022/02/26 11:43:48;;;;;;;13.23;5.18;;;8.10;68.80;;;;;;4982593;28;20218;-88
2022/02/26 11:46:39;;;;;;;9.43;5.68;;;8.00;69.70;;;;;;4987728;28;20266;-88
2022/02/26 11:49:27;;;;;;;17.48;6.28;;;8.20;70.10;;;;;;5002481;28;20186;-88
2022/02/26 11:51:52;;;;;;;17.33;5.78;;;8.50;69.90;;;;;;5000240;28;20274;-87
2022/02/26 11:54:21;;;;;;;13.73;6.33;;;8.40;68.90;;;;;;4999208;28;20683;-87
2022/02/26 11:56:51;;;;;;;22.08;7.30;;;8.40;69.40;;;;;;5000780;28;20178;-88
2022/02/26 11:59:17;;;;;;;17.60;6.55;;;8.40;68.60;;;;;;4987421;28;20182;-87
2022/02/26 12:02:02;;;;;;;26.20;7.70;;;8.30;68.40;;;;;;4999839;28;20182;-87
2022/02/26 12:04:42;;;;;;;17.17;7.55;;;8.50;68.50;;;;;;4999124;28;20752;-87
2022/02/26 12:07:26;;;;;;;20.15;7.32;;;8.50;67.80;;;;;;5001789;28;20631;-87
2022/02/26 12:10:00;;;;;;;19.58;8.05;;;8.40;67.70;;;;;;4999066;28;20221;-88
2022/02/26 12:12:48;;;;;;;13.80;6.90;;;8.20;67.00;;;;;;4980376;28;20242;-87
2022/02/26 12:15:22;;;;;;;18.20;6.15;;;8.30;67.20;;;;;;4999775;28;20252;-87
2022/02/26 12:18:12;;;;;;;14.25;7.95;;;8.30;68.00;;;;;;4997592;28;20211;-87
2022/02/26 12:20:39;;;;;;;21.50;7.32;;;8.40;67.50;;;;;;4986837;28;20245;-87
2022/02/26 12:23:13;;;;;;;14.95;5.88;;;8.50;66.20;;;;;;5016812;28;20210;-87
2022/02/26 12:25:40;;;;;;;19.50;6.32;;;8.40;65.30;;;;;;4986170;28;20242;-90
2022/02/26 12:28:15;;;;;;;17.88;6.30;;;8.20;65.30;;;;;;4983131;28;20233;-86
2022/02/26 12:31:10;;;;;;;22.58;7.50;;;8.50;66.70;;;;;;4986948;28;20690;-86
2022/02/26 12:33:46;;;;;;;18.05;5.70;;;8.50;66.00;;;;;;4967985;28;20203;-86
2022/02/26 12:36:18;;;;;;;13.80;6.10;;;8.60;66.40;;;;;;4998917;28;20217;-86
2022/02/26 12:38:59;;;;;;;14.60;6.90;;;8.60;65.00;;;;;;4982117;28;20179;-86
2022/02/26 12:41:35;;;;;;;14.95;6.38;;;8.50;64.70;;;;;;4998346;28;20167;-84
2022/02/26 12:44:01;;;;;;;15.02;5.50;;;8.40;64.30;;;;;;4977885;28;20225;-86